sensor_id;sensor_type;location;lat;lon;timestamp;P1;durP1;ratioP1;P2;durP2;ratioP2
16522;SDS011;19889;52.546;13.348;2023-07-20T00:00:11;2.80;;;2.45;;
16522;SDS011;19889;52.546;13.348;2023-07-20T00:02:39;3.80;;;2.28;;
16522;SDS011;19889;52.546;13.348;2023-07-20T00:05:06;2.50;;;2.13;;
16522;SDS011;19889;52.546;13.348;2023-07-20T00:07:33;2.95;;;2.53;;
16522;SDS011;19889;52.546;13.348;2023-07-20T00:10:00;3.17;;;2.88;;
16522;SDS011;19889;52.546;13.348;2023-07-20T00:12:27;4.72;;;2.00;;
16522;SDS011;19889;52.546;13.348;2023-07-20T00:14:56;2.85;;;2.30;;
16522;SDS011;19889;52.546;13.348;2023-07-20T00:17:23;2.83;;;2.55;;
16522;SDS011;19889;52.546;13.348;2023-07-20T00:20:19;7.57;;;2.58;;
16522;SDS011;19889;52.546;13.348;2023-07-20T00:22:46;2.55;;;2.22;;
16522;SDS011;19889;52.546;13.348;2023-07-20T00:25:16;2.70;;;2.33;;
16522;SDS011;19889;52.546;13.348;2023-07-20T00:27:43;3.80;;;2.45;;
16522;SDS011;19889;52.546;13.348;2023-07-20T00:30:12;3.70;;;2.70;;
16522;SDS011;19889;52.546;13.348;2023-07-20T00:32:40;4.82;;;2.75;;
16522;SDS011;19889;52.546;13.348;2023-07-20T00:35:08;2.83;;;2.63;;
16522;SDS011;19889;52.546;13.348;2023-07-20T00:37:36;4.28;;;2.30;;
16522;SDS011;19889;52.546;13.348;2023-07-20T00:40:05;3.67;;;2.83;;
16522;SDS011;19889;52.546;13.348;2023-07-20T00:42:33;2.50;;;2.30;;
16522;SDS011;19889;52.546;13.348;2023-07-20T00:45:01;3.90;;;2.45;;
16522;SDS011;19889;52.546;13.348;2023-07-20T00:47:30;4.82;;;2.47;;
16522;SDS011;19889;52.546;13.348;2023-07-20T00:49:58;3.63;;;2.50;;
16522;SDS011;19889;52.546;13.348;2023-07-20T00:52:26;3.53;;;2.50;;
16522;SDS011;19889;52.546;13.348;2023-07-20T00:54:55;3.60;;;2.75;;
16522;SDS011;19889;52.546;13.348;2023-07-20T00:57:23;2.70;;;2.50;;
16522;SDS011;19889;52.546;13.348;2023-07-20T00:59:51;4.35;;;3.15;;
16522;SDS011;19889;52.546;13.348;2023-07-20T01:02:19;4.68;;;4.28;;
16522;SDS011;19889;52.546;13.348;2023-07-20T01:04:47;3.58;;;2.50;;
16522;SDS011;19889;52.546;13.348;2023-07-20T01:07:17;4.57;;;2.92;;
16522;SDS011;19889;52.546;13.348;2023-07-20T01:09:52;3.63;;;3.25;;
16522;SDS011;19889;52.546;13.348;2023-07-20T01:12:27;4.50;;;3.10;;
16522;SDS011;19889;52.546;13.348;2023-07-20T01:14:59;3.42;;;3.13;;
16522;SDS011;19889;52.546;13.348;2023-07-20T01:17:27;4.25;;;2.75;;
16522;SDS011;19889;52.546;13.348;2023-07-20T01:19:55;3.47;;;3.17;;
16522;SDS011;19889;52.546;13.348;2023-07-20T01:22:47;3.85;;;3.13;;
16522;SDS011;19889;52.546;13.348;2023-07-20T01:25:56;3.20;;;2.90;;
16522;SDS011;19889;52.546;13.348;2023-07-20T01:28:57;3.00;;;2.80;;
16522;SDS011;19889;52.546;13.348;2023-07-20T01:31:40;2.85;;;2.65;;
16522;SDS011;19889;52.546;13.348;2023-07-20T01:34:11;3.92;;;2.88;;
16522;SDS011;19889;52.546;13.348;2023-07-20T01:36:40;3.00;;;2.65;;
16522;SDS011;19889;52.546;13.348;2023-07-20T01:42:21;3.50;;;3.20;;
16522;SDS011;19889;52.546;13.348;2023-07-20T01:44:50;5.18;;;3.15;;
16522;SDS011;19889;52.546;13.348;2023-07-20T01:47:20;3.17;;;2.90;;
16522;SDS011;19889;52.546;13.348;2023-07-20T01:50:22;3.50;;;3.17;;
16522;SDS011;19889;52.546;13.348;2023-07-20T01:52:50;3.22;;;2.80;;
16522;SDS011;19889;52.546;13.348;2023-07-20T01:55:18;3.45;;;3.13;;
16522;SDS011;19889;52.546;13.348;2023-07-20T01:57:45;4.15;;;3.10;;
16522;SDS011;19889;52.546;13.348;2023-07-20T02:00:12;5.03;;;3.33;;
16522;SDS011;19889;52.546;13.348;2023-07-20T02:02:41;3.40;;;3.10;;
16522;SDS011;19889;52.546;13.348;2023-07-20T02:05:09;5.45;;;2.85;;
16522;SDS011;19889;52.546;13.348;2023-07-20T02:07:36;3.47;;;2.80;;
16522;SDS011;19889;52.546;13.348;2023-07-20T02:10:05;2.95;;;2.72;;
16522;SDS011;19889;52.546;13.348;2023-07-20T02:12:34;4.07;;;3.20;;
16522;SDS011;19889;52.546;13.348;2023-07-20T02:15:02;4.60;;;3.90;;
16522;SDS011;19889;52.546;13.348;2023-07-20T02:17:30;3.45;;;3.10;;
16522;SDS011;19889;52.546;13.348;2023-07-20T02:19:58;3.15;;;2.95;;
16522;SDS011;19889;52.546;13.348;2023-07-20T02:22:25;3.60;;;3.30;;
16522;SDS011;19889;52.546;13.348;2023-07-20T02:24:53;3.35;;;3.15;;
16522;SDS011;19889;52.546;13.348;2023-07-20T02:30:06;4.72;;;4.30;;
16522;SDS011;19889;52.546;13.348;2023-07-20T02:32:36;5.20;;;4.50;;
16522;SDS011;19889;52.546;13.348;2023-07-20T02:35:05;5.20;;;4.40;;
16522;SDS011;19889;52.546;13.348;2023-07-20T02:37:32;5.57;;;4.47;;
16522;SDS011;19889;52.546;13.348;2023-07-20T02:40:00;6.03;;;4.85;;
16522;SDS011;19889;52.546;13.348;2023-07-20T02:42:28;6.05;;;4.90;;
16522;SDS011;19889;52.546;13.348;2023-07-20T02:44:56;4.93;;;4.53;;
16522;SDS011;19889;52.546;13.348;2023-07-20T02:47:23;5.97;;;4.45;;
16522;SDS011;19889;52.546;13.348;2023-07-20T02:49:50;5.72;;;4.85;;
16522;SDS011;19889;52.546;13.348;2023-07-20T02:52:19;6.47;;;5.88;;
16522;SDS011;19889;52.546;13.348;2023-07-20T02:54:46;5.47;;;4.88;;
16522;SDS011;19889;52.546;13.348;2023-07-20T02:57:14;5.10;;;4.60;;
16522;SDS011;19889;52.546;13.348;2023-07-20T02:59:41;5.22;;;4.72;;
16522;SDS011;19889;52.546;13.348;2023-07-20T03:02:08;7.45;;;4.85;;
16522;SDS011;19889;52.546;13.348;2023-07-20T03:04:35;6.72;;;5.43;;
16522;SDS011;19889;52.546;13.348;2023-07-20T03:07:04;5.50;;;4.97;;
16522;SDS011;19889;52.546;13.348;2023-07-20T03:09:33;5.07;;;4.63;;
16522;SDS011;19889;52.546;13.348;2023-07-20T03:12:00;5.40;;;4.85;;
16522;SDS011;19889;52.546;13.348;2023-07-20T03:14:30;5.70;;;5.13;;
16522;SDS011;19889;52.546;13.348;2023-07-20T03:16:58;7.40;;;5.30;;
16522;SDS011;19889;52.546;13.348;2023-07-20T03:19:25;5.90;;;5.07;;
16522;SDS011;19889;52.546;13.348;2023-07-20T03:21:53;7.43;;;5.28;;
16522;SDS011;19889;52.546;13.348;2023-07-20T03:24:20;6.32;;;5.05;;
16522;SDS011;19889;52.546;13.348;2023-07-20T03:26:51;5.90;;;4.95;;
16522;SDS011;19889;52.546;13.348;2023-07-20T03:29:18;7.07;;;5.22;;
16522;SDS011;19889;52.546;13.348;2023-07-20T03:32:09;6.18;;;5.68;;
16522;SDS011;19889;52.546;13.348;2023-07-20T03:34:37;8.13;;;5.80;;
16522;SDS011;19889;52.546;13.348;2023-07-20T03:37:04;5.85;;;5.28;;
16522;SDS011;19889;52.546;13.348;2023-07-20T03:39:32;6.30;;;5.65;;
16522;SDS011;19889;52.546;13.348;2023-07-20T03:42:00;5.53;;;5.03;;
16522;SDS011;19889;52.546;13.348;2023-07-20T03:44:27;6.32;;;4.90;;
16522;SDS011;19889;52.546;13.348;2023-07-20T03:46:54;7.18;;;4.88;;
16522;SDS011;19889;52.546;13.348;2023-07-20T03:49:21;5.10;;;4.70;;
16522;SDS011;19889;52.546;13.348;2023-07-20T03:51:49;6.10;;;4.82;;
16522;SDS011;19889;52.546;13.348;2023-07-20T03:54:16;6.43;;;4.93;;
16522;SDS011;19889;52.546;13.348;2023-07-20T03:56:44;5.60;;;5.10;;
16522;SDS011;19889;52.546;13.348;2023-07-20T03:59:13;5.22;;;4.57;;
16522;SDS011;19889;52.546;13.348;2023-07-20T04:01:40;6.10;;;5.07;;
16522;SDS011;19889;52.546;13.348;2023-07-20T04:04:07;5.05;;;4.43;;
16522;SDS011;19889;52.546;13.348;2023-07-20T04:06:35;5.93;;;4.72;;
16522;SDS011;19889;52.546;13.348;2023-07-20T04:09:03;7.13;;;4.82;;
16522;SDS011;19889;52.546;13.348;2023-07-20T04:11:31;5.53;;;4.72;;
16522;SDS011;19889;52.546;13.348;2023-07-20T04:13:59;5.40;;;4.55;;
16522;SDS011;19889;52.546;13.348;2023-07-20T04:16:28;7.85;;;5.47;;
16522;SDS011;19889;52.546;13.348;2023-07-20T04:19:09;5.63;;;5.10;;
16522;SDS011;19889;52.546;13.348;2023-07-20T04:21:39;5.65;;;4.80;;
16522;SDS011;19889;52.546;13.348;2023-07-20T04:24:07;6.38;;;5.40;;
16522;SDS011;19889;52.546;13.348;2023-07-20T04:26:36;5.50;;;5.00;;
16522;SDS011;19889;52.546;13.348;2023-07-20T04:29:04;6.07;;;5.47;;
16522;SDS011;19889;52.546;13.348;2023-07-20T04:31:39;6.53;;;5.43;;
16522;SDS011;19889;52.546;13.348;2023-07-20T04:34:07;5.97;;;5.43;;
16522;SDS011;19889;52.546;13.348;2023-07-20T04:36:36;6.13;;;5.63;;
16522;SDS011;19889;52.546;13.348;2023-07-20T04:39:04;6.60;;;5.30;;
16522;SDS011;19889;52.546;13.348;2023-07-20T04:41:37;5.85;;;5.35;;
16522;SDS011;19889;52.546;13.348;2023-07-20T04:44:05;6.78;;;6.18;;
16522;SDS011;19889;52.546;13.348;2023-07-20T04:46:33;5.45;;;4.95;;
16522;SDS011;19889;52.546;13.348;2023-07-20T04:49:04;6.20;;;5.60;;
16522;SDS011;19889;52.546;13.348;2023-07-20T04:51:35;7.47;;;5.35;;
16522;SDS011;19889;52.546;13.348;2023-07-20T04:54:03;6.13;;;5.45;;
16522;SDS011;19889;52.546;13.348;2023-07-20T04:56:34;5.65;;;5.13;;
16522;SDS011;19889;52.546;13.348;2023-07-20T04:59:05;5.38;;;4.88;;
16522;SDS011;19889;52.546;13.348;2023-07-20T05:01:32;6.68;;;5.50;;
16522;SDS011;19889;52.546;13.348;2023-07-20T05:03:59;6.85;;;5.60;;
16522;SDS011;19889;52.546;13.348;2023-07-20T05:06:29;6.13;;;4.88;;
16522;SDS011;19889;52.546;13.348;2023-07-20T05:08:57;6.07;;;5.50;;
16522;SDS011;19889;52.546;13.348;2023-07-20T05:11:24;6.10;;;5.20;;
16522;SDS011;19889;52.546;13.348;2023-07-20T05:13:52;6.22;;;4.68;;
16522;SDS011;19889;52.546;13.348;2023-07-20T05:16:19;7.38;;;5.18;;
16522;SDS011;19889;52.546;13.348;2023-07-20T05:18:47;5.32;;;4.85;;
16522;SDS011;19889;52.546;13.348;2023-07-20T05:21:18;5.68;;;5.10;;
16522;SDS011;19889;52.546;13.348;2023-07-20T05:23:48;4.97;;;4.57;;
16522;SDS011;19889;52.546;13.348;2023-07-20T05:26:15;5.20;;;4.65;;
16522;SDS011;19889;52.546;13.348;2023-07-20T05:28:43;5.22;;;4.72;;
16522;SDS011;19889;52.546;13.348;2023-07-20T05:31:11;5.45;;;4.63;;
16522;SDS011;19889;52.546;13.348;2023-07-20T05:33:39;5.03;;;4.60;;
16522;SDS011;19889;52.546;13.348;2023-07-20T05:36:06;6.25;;;4.72;;
16522;SDS011;19889;52.546;13.348;2023-07-20T05:38:35;6.20;;;5.05;;
16522;SDS011;19889;52.546;13.348;2023-07-20T05:41:18;5.75;;;5.03;;
16522;SDS011;19889;52.546;13.348;2023-07-20T05:43:46;5.57;;;5.07;;
16522;SDS011;19889;52.546;13.348;2023-07-20T05:46:13;5.47;;;4.97;;
16522;SDS011;19889;52.546;13.348;2023-07-20T05:48:41;6.53;;;5.43;;
16522;SDS011;19889;52.546;13.348;2023-07-20T05:51:08;5.55;;;5.05;;
16522;SDS011;19889;52.546;13.348;2023-07-20T05:53:37;6.03;;;5.15;;
16522;SDS011;19889;52.546;13.348;2023-07-20T05:56:09;5.07;;;4.63;;
16522;SDS011;19889;52.546;13.348;2023-07-20T05:58:38;10.18;;;5.50;;
16522;SDS011;19889;52.546;13.348;2023-07-20T06:01:05;6.05;;;4.80;;
16522;SDS011;19889;52.546;13.348;2023-07-20T06:03:33;5.45;;;4.95;;
16522;SDS011;19889;52.546;13.348;2023-07-20T06:06:02;5.85;;;4.35;;
16522;SDS011;19889;52.546;13.348;2023-07-20T06:08:31;5.50;;;4.78;;
16522;SDS011;19889;52.546;13.348;2023-07-20T06:10:59;5.35;;;4.85;;
16522;SDS011;19889;52.546;13.348;2023-07-20T06:13:27;8.25;;;5.32;;
16522;SDS011;19889;52.546;13.348;2023-07-20T06:15:56;5.28;;;4.88;;
16522;SDS011;19889;52.546;13.348;2023-07-20T06:18:24;6.22;;;5.15;;
16522;SDS011;19889;52.546;13.348;2023-07-20T06:20:51;4.30;;;3.90;;
16522;SDS011;19889;52.546;13.348;2023-07-20T06:23:19;5.80;;;4.60;;
16522;SDS011;19889;52.546;13.348;2023-07-20T06:25:59;7.53;;;5.32;;
16522;SDS011;19889;52.546;13.348;2023-07-20T06:28:26;4.40;;;4.00;;
16522;SDS011;19889;52.546;13.348;2023-07-20T06:31:00;5.60;;;4.13;;
16522;SDS011;19889;52.546;13.348;2023-07-20T06:33:28;4.72;;;3.75;;
16522;SDS011;19889;52.546;13.348;2023-07-20T06:36:07;5.40;;;3.50;;
16522;SDS011;19889;52.546;13.348;2023-07-20T06:38:35;5.63;;;3.15;;
16522;SDS011;19889;52.546;13.348;2023-07-20T06:41:02;4.72;;;3.70;;
16522;SDS011;19889;52.546;13.348;2023-07-20T06:43:30;4.40;;;3.10;;
16522;SDS011;19889;52.546;13.348;2023-07-20T06:45:58;3.97;;;2.70;;
16522;SDS011;19889;52.546;13.348;2023-07-20T06:48:27;3.92;;;3.53;;
16522;SDS011;19889;52.546;13.348;2023-07-20T06:50:55;3.42;;;3.13;;
16522;SDS011;19889;52.546;13.348;2023-07-20T06:53:22;3.50;;;2.70;;
16522;SDS011;19889;52.546;13.348;2023-07-20T06:56:24;3.58;;;2.25;;
16522;SDS011;19889;52.546;13.348;2023-07-20T06:58:54;3.47;;;2.15;;
16522;SDS011;19889;52.546;13.348;2023-07-20T07:01:23;3.78;;;2.47;;
16522;SDS011;19889;52.546;13.348;2023-07-20T07:03:51;2.10;;;1.90;;
16522;SDS011;19889;52.546;13.348;2023-07-20T07:06:18;2.22;;;1.90;;
16522;SDS011;19889;52.546;13.348;2023-07-20T07:08:46;3.22;;;2.00;;
16522;SDS011;19889;52.546;13.348;2023-07-20T07:11:14;1.88;;;1.67;;
16522;SDS011;19889;52.546;13.348;2023-07-20T07:13:41;2.15;;;1.80;;
16522;SDS011;19889;52.546;13.348;2023-07-20T07:16:12;2.67;;;1.92;;
16522;SDS011;19889;52.546;13.348;2023-07-20T07:18:45;2.00;;;1.58;;
16522;SDS011;19889;52.546;13.348;2023-07-20T07:21:13;2.22;;;1.38;;
16522;SDS011;19889;52.546;13.348;2023-07-20T07:23:41;1.40;;;1.30;;
16522;SDS011;19889;52.546;13.348;2023-07-20T07:26:08;4.13;;;1.95;;
16522;SDS011;19889;52.546;13.348;2023-07-20T07:28:36;1.40;;;1.30;;
16522;SDS011;19889;52.546;13.348;2023-07-20T07:31:04;2.28;;;1.10;;
16522;SDS011;19889;52.546;13.348;2023-07-20T07:33:32;1.30;;;1.20;;
16522;SDS011;19889;52.546;13.348;2023-07-20T07:36:01;5.40;;;1.35;;
16522;SDS011;19889;52.546;13.348;2023-07-20T07:38:29;1.50;;;1.40;;
16522;SDS011;19889;52.546;13.348;2023-07-20T07:40:57;1.58;;;1.35;;
16522;SDS011;19889;52.546;13.348;2023-07-20T07:43:25;1.40;;;1.30;;
16522;SDS011;19889;52.546;13.348;2023-07-20T07:45:53;1.50;;;1.10;;
16522;SDS011;19889;52.546;13.348;2023-07-20T07:48:21;1.02;;;0.90;;
16522;SDS011;19889;52.546;13.348;2023-07-20T07:50:50;0.80;;;0.80;;
16522;SDS011;19889;52.546;13.348;2023-07-20T07:53:19;1.50;;;1.40;;
16522;SDS011;19889;52.546;13.348;2023-07-20T07:55:47;1.15;;;1.10;;
16522;SDS011;19889;52.546;13.348;2023-07-20T07:58:15;1.60;;;1.10;;
16522;SDS011;19889;52.546;13.348;2023-07-20T08:00:42;1.23;;;1.10;;
16522;SDS011;19889;52.546;13.348;2023-07-20T08:03:10;1.10;;;1.00;;
16522;SDS011;19889;52.546;13.348;2023-07-20T08:05:37;2.97;;;1.33;;
16522;SDS011;19889;52.546;13.348;2023-07-20T08:08:05;1.25;;;1.10;;
16522;SDS011;19889;52.546;13.348;2023-07-20T08:10:35;2.55;;;1.63;;
16522;SDS011;19889;52.546;13.348;2023-07-20T08:13:03;1.67;;;1.10;;
16522;SDS011;19889;52.546;13.348;2023-07-20T08:15:30;1.13;;;1.05;;
16522;SDS011;19889;52.546;13.348;2023-07-20T08:17:58;1.33;;;1.20;;
16522;SDS011;19889;52.546;13.348;2023-07-20T08:20:25;3.10;;;1.00;;
16522;SDS011;19889;52.546;13.348;2023-07-20T08:22:53;1.10;;;1.00;;
16522;SDS011;19889;52.546;13.348;2023-07-20T08:25:21;1.30;;;1.20;;
16522;SDS011;19889;52.546;13.348;2023-07-20T08:27:50;1.73;;;1.63;;
16522;SDS011;19889;52.546;13.348;2023-07-20T08:30:21;1.00;;;1.00;;
16522;SDS011;19889;52.546;13.348;2023-07-20T08:32:49;0.80;;;0.80;;
16522;SDS011;19889;52.546;13.348;2023-07-20T08:35:17;0.60;;;0.60;;
16522;SDS011;19889;52.546;13.348;2023-07-20T08:37:45;1.15;;;1.08;;
16522;SDS011;19889;52.546;13.348;2023-07-20T08:40:13;0.95;;;0.80;;
16522;SDS011;19889;52.546;13.348;2023-07-20T08:42:41;3.67;;;1.00;;
16522;SDS011;19889;52.546;13.348;2023-07-20T08:45:10;3.10;;;1.48;;
16522;SDS011;19889;52.546;13.348;2023-07-20T08:47:40;0.77;;;0.77;;
16522;SDS011;19889;52.546;13.348;2023-07-20T08:50:10;2.97;;;0.60;;
16522;SDS011;19889;52.546;13.348;2023-07-20T08:52:39;0.90;;;0.90;;
16522;SDS011;19889;52.546;13.348;2023-07-20T08:55:08;1.65;;;0.88;;
16522;SDS011;19889;52.546;13.348;2023-07-20T08:57:36;0.70;;;0.70;;
16522;SDS011;19889;52.546;13.348;2023-07-20T09:00:07;2.65;;;1.00;;
16522;SDS011;19889;52.546;13.348;2023-07-20T09:02:40;1.73;;;1.10;;
16522;SDS011;19889;52.546;13.348;2023-07-20T09:05:11;2.00;;;0.90;;
16522;SDS011;19889;52.546;13.348;2023-07-20T09:07:39;0.90;;;0.90;;
16522;SDS011;19889;52.546;13.348;2023-07-20T09:10:07;0.70;;;0.60;;
16522;SDS011;19889;52.546;13.348;2023-07-20T09:12:36;1.50;;;1.35;;
16522;SDS011;19889;52.546;13.348;2023-07-20T09:15:04;1.83;;;1.50;;
16522;SDS011;19889;52.546;13.348;2023-07-20T09:17:34;1.25;;;1.15;;
16522;SDS011;19889;52.546;13.348;2023-07-20T09:20:09;1.65;;;1.50;;
16522;SDS011;19889;52.546;13.348;2023-07-20T09:22:37;1.73;;;1.20;;
16522;SDS011;19889;52.546;13.348;2023-07-20T09:25:06;1.17;;;1.00;;
16522;SDS011;19889;52.546;13.348;2023-07-20T09:27:34;1.15;;;1.05;;
16522;SDS011;19889;52.546;13.348;2023-07-20T09:30:07;1.77;;;1.63;;
16522;SDS011;19889;52.546;13.348;2023-07-20T09:32:41;1.10;;;1.00;;
16522;SDS011;19889;52.546;13.348;2023-07-20T09:35:13;1.60;;;1.40;;
16522;SDS011;19889;52.546;13.348;2023-07-20T09:37:49;2.10;;;1.02;;
16522;SDS011;19889;52.546;13.348;2023-07-20T09:40:18;4.18;;;1.25;;
16522;SDS011;19889;52.546;13.348;2023-07-20T09:42:46;1.48;;;0.90;;
16522;SDS011;19889;52.546;13.348;2023-07-20T09:45:14;1.10;;;1.00;;
16522;SDS011;19889;52.546;13.348;2023-07-20T09:47:43;2.30;;;2.10;;
16522;SDS011;19889;52.546;13.348;2023-07-20T09:50:10;1.20;;;0.90;;
16522;SDS011;19889;52.546;13.348;2023-07-20T09:52:41;1.02;;;0.93;;
16522;SDS011;19889;52.546;13.348;2023-07-20T09:55:25;0.80;;;0.80;;
16522;SDS011;19889;52.546;13.348;2023-07-20T09:57:53;0.73;;;0.73;;
16522;SDS011;19889;52.546;13.348;2023-07-20T10:00:22;1.48;;;1.10;;
16522;SDS011;19889;52.546;13.348;2023-07-20T10:02:52;2.72;;;2.20;;
16522;SDS011;19889;52.546;13.348;2023-07-20T10:05:22;1.75;;;1.52;;
16522;SDS011;19889;52.546;13.348;2023-07-20T10:07:54;2.00;;;1.40;;
16522;SDS011;19889;52.546;13.348;2023-07-20T10:10:23;1.40;;;1.30;;
16522;SDS011;19889;52.546;13.348;2023-07-20T10:12:53;1.63;;;1.50;;
16522;SDS011;19889;52.546;13.348;2023-07-20T10:15:23;2.58;;;1.42;;
16522;SDS011;19889;52.546;13.348;2023-07-20T10:17:59;1.83;;;1.60;;
16522;SDS011;19889;52.546;13.348;2023-07-20T10:20:33;0.95;;;0.90;;
16522;SDS011;19889;52.546;13.348;2023-07-20T10:23:03;0.60;;;0.60;;
16522;SDS011;19889;52.546;13.348;2023-07-20T10:25:32;1.17;;;0.82;;
16522;SDS011;19889;52.546;13.348;2023-07-20T10:28:03;1.65;;;1.10;;
16522;SDS011;19889;52.546;13.348;2023-07-20T10:30:32;1.38;;;0.95;;
16522;SDS011;19889;52.546;13.348;2023-07-20T10:33:15;1.30;;;0.70;;
16522;SDS011;19889;52.546;13.348;2023-07-20T10:35:50;1.75;;;0.80;;
16522;SDS011;19889;52.546;13.348;2023-07-20T10:38:18;0.88;;;0.88;;
16522;SDS011;19889;52.546;13.348;2023-07-20T10:40:53;1.60;;;0.90;;
16522;SDS011;19889;52.546;13.348;2023-07-20T10:43:22;1.35;;;0.90;;
16522;SDS011;19889;52.546;13.348;2023-07-20T10:45:51;1.15;;;0.95;;
16522;SDS011;19889;52.546;13.348;2023-07-20T10:48:23;1.58;;;1.30;;
16522;SDS011;19889;52.546;13.348;2023-07-20T10:53:48;1.30;;;1.20;;
16522;SDS011;19889;52.546;13.348;2023-07-20T10:56:19;1.10;;;1.00;;
16522;SDS011;19889;52.546;13.348;2023-07-20T10:58:48;2.13;;;1.48;;
16522;SDS011;19889;52.546;13.348;2023-07-20T11:01:16;1.50;;;1.10;;
16522;SDS011;19889;52.546;13.348;2023-07-20T11:03:51;2.60;;;1.38;;
16522;SDS011;19889;52.546;13.348;2023-07-20T11:06:30;2.05;;;0.80;;
16522;SDS011;19889;52.546;13.348;2023-07-20T11:09:08;1.00;;;0.90;;
16522;SDS011;19889;52.546;13.348;2023-07-20T11:11:40;1.17;;;1.08;;
16522;SDS011;19889;52.546;13.348;2023-07-20T11:14:09;1.30;;;1.13;;
16522;SDS011;19889;52.546;13.348;2023-07-20T11:16:38;0.75;;;0.75;;
16522;SDS011;19889;52.546;13.348;2023-07-20T11:19:15;2.08;;;0.90;;
16522;SDS011;19889;52.546;13.348;2023-07-20T11:21:44;1.05;;;0.95;;
16522;SDS011;19889;52.546;13.348;2023-07-20T11:24:13;1.10;;;0.80;;
16522;SDS011;19889;52.546;13.348;2023-07-20T11:26:44;1.27;;;1.00;;
16522;SDS011;19889;52.546;13.348;2023-07-20T11:29:13;1.08;;;0.98;;
16522;SDS011;19889;52.546;13.348;2023-07-20T11:31:43;1.58;;;1.33;;
16522;SDS011;19889;52.546;13.348;2023-07-20T11:34:12;1.98;;;0.93;;
16522;SDS011;19889;52.546;13.348;2023-07-20T11:36:43;1.73;;;0.80;;
16522;SDS011;19889;52.546;13.348;2023-07-20T11:39:12;1.20;;;1.10;;
16522;SDS011;19889;52.546;13.348;2023-07-20T11:41:43;3.72;;;1.05;;
16522;SDS011;19889;52.546;13.348;2023-07-20T11:44:13;0.90;;;0.90;;
16522;SDS011;19889;52.546;13.348;2023-07-20T11:46:42;1.20;;;0.85;;
16522;SDS011;19889;52.546;13.348;2023-07-20T11:49:11;1.23;;;1.00;;
16522;SDS011;19889;52.546;13.348;2023-07-20T11:51:40;0.90;;;0.70;;
16522;SDS011;19889;52.546;13.348;2023-07-20T11:54:08;2.08;;;0.70;;
16522;SDS011;19889;52.546;13.348;2023-07-20T11:56:36;1.20;;;0.73;;
16522;SDS011;19889;52.546;13.348;2023-07-20T11:59:09;2.13;;;0.73;;
16522;SDS011;19889;52.546;13.348;2023-07-20T12:01:37;1.58;;;0.80;;
16522;SDS011;19889;52.546;13.348;2023-07-20T12:04:05;1.63;;;0.90;;
16522;SDS011;19889;52.546;13.348;2023-07-20T12:06:33;0.95;;;0.90;;
16522;SDS011;19889;52.546;13.348;2023-07-20T12:09:03;0.80;;;0.70;;
16522;SDS011;19889;52.546;13.348;2023-07-20T12:11:31;2.05;;;0.65;;
16522;SDS011;19889;52.546;13.348;2023-07-20T12:13:59;1.45;;;1.08;;
16522;SDS011;19889;52.546;13.348;2023-07-20T12:16:27;1.40;;;0.70;;
16522;SDS011;19889;52.546;13.348;2023-07-20T12:18:59;1.48;;;1.02;;
16522;SDS011;19889;52.546;13.348;2023-07-20T12:21:28;1.95;;;0.90;;
16522;SDS011;19889;52.546;13.348;2023-07-20T12:23:56;1.42;;;1.05;;
16522;SDS011;19889;52.546;13.348;2023-07-20T12:26:26;2.33;;;0.93;;
16522;SDS011;19889;52.546;13.348;2023-07-20T12:28:56;0.70;;;0.70;;
16522;SDS011;19889;52.546;13.348;2023-07-20T12:31:24;0.60;;;0.60;;
16522;SDS011;19889;52.546;13.348;2023-07-20T12:33:56;0.75;;;0.70;;
16522;SDS011;19889;52.546;13.348;2023-07-20T12:36:24;0.82;;;0.70;;
16522;SDS011;19889;52.546;13.348;2023-07-20T12:38:52;1.05;;;0.70;;
16522;SDS011;19889;52.546;13.348;2023-07-20T12:41:20;0.93;;;0.80;;
16522;SDS011;19889;52.546;13.348;2023-07-20T12:43:49;0.95;;;0.95;;
16522;SDS011;19889;52.546;13.348;2023-07-20T12:46:18;1.58;;;1.20;;
16522;SDS011;19889;52.546;13.348;2023-07-20T12:48:45;1.52;;;0.77;;
16522;SDS011;19889;52.546;13.348;2023-07-20T12:51:13;2.60;;;1.15;;
16522;SDS011;19889;52.546;13.348;2023-07-20T12:53:41;0.90;;;0.80;;
16522;SDS011;19889;52.546;13.348;2023-07-20T12:56:08;4.05;;;2.08;;
16522;SDS011;19889;52.546;13.348;2023-07-20T12:58:36;2.58;;;1.58;;
16522;SDS011;19889;52.546;13.348;2023-07-20T13:01:05;1.92;;;1.00;;
16522;SDS011;19889;52.546;13.348;2023-07-20T13:03:33;3.55;;;1.38;;
16522;SDS011;19889;52.546;13.348;2023-07-20T13:06:00;2.33;;;1.73;;
16522;SDS011;19889;52.546;13.348;2023-07-20T13:08:28;0.63;;;0.60;;
16522;SDS011;19889;52.546;13.348;2023-07-20T13:10:55;1.05;;;0.77;;
16522;SDS011;19889;52.546;13.348;2023-07-20T13:13:22;3.15;;;0.73;;
16522;SDS011;19889;52.546;13.348;2023-07-20T13:15:50;1.10;;;0.82;;
16522;SDS011;19889;52.546;13.348;2023-07-20T13:18:40;0.95;;;0.90;;
16522;SDS011;19889;52.546;13.348;2023-07-20T13:21:08;2.85;;;1.15;;
16522;SDS011;19889;52.546;13.348;2023-07-20T13:23:37;1.13;;;0.70;;
16522;SDS011;19889;52.546;13.348;2023-07-20T13:26:04;1.92;;;0.80;;
16522;SDS011;19889;52.546;13.348;2023-07-20T13:28:33;1.58;;;1.10;;
16522;SDS011;19889;52.546;13.348;2023-07-20T13:31:01;2.10;;;1.02;;
16522;SDS011;19889;52.546;13.348;2023-07-20T13:33:29;0.60;;;0.60;;
16522;SDS011;19889;52.546;13.348;2023-07-20T13:36:06;2.22;;;0.88;;
16522;SDS011;19889;52.546;13.348;2023-07-20T13:38:33;0.63;;;0.63;;
16522;SDS011;19889;52.546;13.348;2023-07-20T13:41:02;0.93;;;0.80;;
16522;SDS011;19889;52.546;13.348;2023-07-20T13:43:43;1.30;;;0.80;;
16522;SDS011;19889;52.546;13.348;2023-07-20T13:46:11;1.10;;;0.85;;
16522;SDS011;19889;52.546;13.348;2023-07-20T13:48:40;1.92;;;0.90;;
16522;SDS011;19889;52.546;13.348;2023-07-20T13:51:07;1.35;;;1.25;;
16522;SDS011;19889;52.546;13.348;2023-07-20T13:53:35;1.13;;;1.00;;
16522;SDS011;19889;52.546;13.348;2023-07-20T13:56:02;1.00;;;0.90;;
16522;SDS011;19889;52.546;13.348;2023-07-20T13:58:30;1.73;;;0.80;;
16522;SDS011;19889;52.546;13.348;2023-07-20T14:00:59;1.35;;;0.90;;
16522;SDS011;19889;52.546;13.348;2023-07-20T14:03:26;1.45;;;0.70;;
16522;SDS011;19889;52.546;13.348;2023-07-20T14:05:55;2.25;;;1.60;;
16522;SDS011;19889;52.546;13.348;2023-07-20T14:08:23;3.38;;;1.38;;
16522;SDS011;19889;52.546;13.348;2023-07-20T14:10:50;0.60;;;0.60;;
16522;SDS011;19889;52.546;13.348;2023-07-20T14:13:20;1.58;;;1.25;;
16522;SDS011;19889;52.546;13.348;2023-07-20T14:15:47;0.73;;;0.73;;
16522;SDS011;19889;52.546;13.348;2023-07-20T14:18:15;3.13;;;1.15;;
16522;SDS011;19889;52.546;13.348;2023-07-20T14:20:43;2.17;;;0.93;;
16522;SDS011;19889;52.546;13.348;2023-07-20T14:23:12;4.63;;;2.83;;
16522;SDS011;19889;52.546;13.348;2023-07-20T14:25:40;1.20;;;1.10;;
16522;SDS011;19889;52.546;13.348;2023-07-20T14:28:07;1.05;;;0.95;;
16522;SDS011;19889;52.546;13.348;2023-07-20T14:30:35;1.02;;;1.02;;
16522;SDS011;19889;52.546;13.348;2023-07-20T14:33:03;1.27;;;1.00;;
16522;SDS011;19889;52.546;13.348;2023-07-20T14:35:31;2.47;;;1.35;;
16522;SDS011;19889;52.546;13.348;2023-07-20T14:38:06;0.82;;;0.70;;
16522;SDS011;19889;52.546;13.348;2023-07-20T14:40:35;2.80;;;0.90;;
16522;SDS011;19889;52.546;13.348;2023-07-20T14:43:02;2.35;;;0.98;;
16522;SDS011;19889;52.546;13.348;2023-07-20T14:45:30;1.65;;;0.60;;
16522;SDS011;19889;52.546;13.348;2023-07-20T14:47:59;0.98;;;0.88;;
16522;SDS011;19889;52.546;13.348;2023-07-20T14:50:27;1.90;;;0.93;;
16522;SDS011;19889;52.546;13.348;2023-07-20T14:52:54;1.73;;;1.42;;
16522;SDS011;19889;52.546;13.348;2023-07-20T14:55:26;1.50;;;1.02;;